FOLSOM LAKE (FOL)

Elevation: 466' · AMERICAN R basin · Operator: US Bureau of Reclamation

Provisional data, subject to change.
Query executed Wednesday at 13:50:43   clock

Select a sensor type for a plot of data.
Note: Reservoir Flows are daily averages.

Earlier

Date RES ELE    STORAGE    RES CHG    TOC STO    ABV TOC    OUTFLOW    INFLOW    EVAP    FNF    RIV REL    PPT INC    SPILL    DC PUMP    DIS PWR   
 FEET   AF   AF   AF   AF   CFS   CFS   CFS   CFS   CFS   INCHES   CFS   CFS   CFS  
07/29/2014 404.28 408565 -2240 977000 -568435 1851 779 57 123 e 0 0.00 0 191 1660
07/30/2014 404.03 406815 -1750 977000 -570185 1791 977 68 123 e 0 0.00 0 191 1600
07/31/2014 403.97 406397 -418 977000 -570603 1533 1383 61 123 e 0 0.00 0 187 1346
08/01/2014 403.92 406051 -346 977000 -- 1779 1668 63 121 e 0 0.00 0 186 1593
08/02/2014 403.83 405429 -622 977000 -- 1711 1465 68 121 e 0 0.00 0 190 1521
08/03/2014 403.60 403837 -1592 977000 -573163 1635 876 44 121 e 0 0.00 0 188 1447
08/04/2014 403.33 401969 -1868 977000 -575031 1733 835 44 121 e 0 0.00 0 178 1555
08/05/2014 403.11 400447 -1522 977000 -576553 1629 885 23 121 e 0 0.00 0 165 1464
08/06/2014 402.89 398934 -1513 977000 -578066 1634 890 19 120 e 0 0.00 0 147 1487
08/07/2014 402.87 398797 -137 977000 -578203 1590 1558 37 120 e 0 0.00 0 172 1418
08/08/2014 402.74 397908 -889 977000 -- 1601 1213 60 77 e 0 0.00 0 176 1425
08/09/2014 402.59 396882 -1026 977000 -- 1796 1335 56 77 e 0 0.00 0 180 1616
08/10/2014 402.35 395241 -1641 977000 -581759 1712 938 53 49 e 0 0.00 0 186 1526
08/11/2014 402.17 394010 -1231 977000 -582990 1689 1112 44 49 e 0 0.00 0 183 1506
08/12/2014 402.11 393599 -411 977000 -583401 1650 1494 51 49 e 0 0.00 0 174 1476
08/13/2014 402.01 392915 -684 977000 -584085 1369 1070 46 49 e 0 0.00 0 179 1190
08/14/2014 402.06 393257 342 977000 -583743 1727 1956 57 21 e 0 0.00 0 180 1547
08/15/2014 402.14 393804 547 977000 -- 1673 2007 58 21 e 0 0.00 0 179 1494
08/16/2014 402.29 394830 1026 977000 -- 1674 2251 60 21 e 0 0.00 0 177 1497
08/17/2014 402.29 394830 0 977000 -582170 1639 1701 62 21 e 0 0.00 0 182 1457
08/18/2014 402.08 393394 -1436 977000 -- 1828 1157 53 21 e 0 0.00 0 177 1651
08/19/2014 401.94 392441 -953 977000 -584559 1591 1162 51 21 e 0 0.00 0 176 1415
08/20/2014 401.72 390954 -1487 977000 -586046 1634 928 44 21 e 0 0.00 0 173 1461
08/21/2014 401.43 388994 -1960 977000 -- 1770 828 46 21 e 0 0.00 0 169 1601
08/22/2014 401.31 388183 -811 977000 -- 1705 1348 52 21 e 0 0.00 0 170 1535
08/23/2014 401.11 386831 -1352 977000 -- 1704 1074 52 21 e 0 0.00 0 172 1532
08/24/2014 401.03 386291 -540 977000 -590709 1641 1419 50 21 e 0 0.00 0 179 1462
08/25/2014 400.88 385287 -1004 977000 -591713 1634 1178 50 -- 0 0.00 0 178 1456
08/26/2014 400.65 383751 -1536 977000 -593249 1656 927 45 -- 0 0.00 0 171 1485
08/27/2014 -- -- -- -- -- -- -- -- -- -- -- -- -- --

Later | Latest

Warning! This data is preliminary and subject to revision.

Download Data Now Download Data Now | Show FOL Map | Plot FOL Data | 1 Month FOL Data | Real-Time FOL Data | FOL Info